Time;durP1;ratioP1;P1;durP2;ratioP2;P2;SDS_P1;SDS_P2;PMS_P1;PMS_P2;Temp;Humidity;BMP_temperature;BMP_pressure;BME280_temperature;BME280_humidity;BME280_pressure;Samples;Min_cycle;Max_cycle;Signal;HPM_P1;HPM_P2
2021/12/09 00:02:23;;;;;;;11.07;6.03;;;;;;;3.42;76.43;99982.66;3586888;40;20048;-63
2021/12/09 00:04:48;;;;;;;10.70;5.80;;;;;;;3.51;76.34;99985.84;3587975;40;20403;-63
2021/12/09 00:07:15;;;;;;;12.27;6.13;;;;;;;3.49;76.40;99989.44;3588584;40;20062;-63
2021/12/09 00:09:40;;;;;;;11.15;5.57;;;;;;;3.48;76.74;99990.34;3588355;40;20137;-64
2021/12/09 00:12:08;;;;;;;13.20;5.85;;;;;;;3.46;76.30;99989.59;3585288;40;20052;-64
2021/12/09 00:14:35;;;;;;;12.30;5.55;;;;;;;3.32;77.00;99960.13;3585505;40;21386;-64
2021/12/09 00:17:08;;;;;;;13.40;5.97;;;;;;;3.48;76.23;99987.69;3586231;39;20060;-63
2021/12/09 00:19:37;;;;;;;12.52;5.53;;;;;;;3.44;76.51;99991.44;3585980;40;20052;-64
2021/12/09 00:22:07;;;;;;;13.10;5.50;;;;;;;3.36;76.54;99974.13;3585377;40;20319;-64
2021/12/09 00:24:33;;;;;;;14.48;6.00;;;;;;;3.47;75.94;99996.63;3589825;40;20059;-63
2021/12/09 00:26:59;;;;;;;12.85;5.97;;;;;;;3.42;76.31;99997.75;3587887;40;20114;-64
2021/12/09 00:29:26;;;;;;;11.32;6.00;;;;;;;3.17;76.58;99961.69;3588645;40;20056;-63
2021/12/09 00:31:51;;;;;;;11.15;5.65;;;;;;;3.44;77.09;100002.06;3586090;40;20299;-64
2021/12/09 00:34:27;;;;;;;13.25;5.65;;;;;;;3.38;76.37;99997.03;3587294;39;20044;-64
2021/12/09 00:36:59;;;;;;;13.73;5.53;;;;;;;3.35;77.00;99998.97;3589890;40;20059;-64
2021/12/09 00:39:26;;;;;;;13.48;5.82;;;;;;;3.31;76.75;100006.22;3588385;40;20088;-64
2021/12/09 00:41:51;;;;;;;10.00;5.15;;;;;;;3.36;76.75;100006.00;3584466;40;20438;-63
2021/12/09 00:44:17;;;;;;;13.82;5.32;;;;;;;3.32;76.61;99996.44;3587837;40;20059;-64
2021/12/09 00:46:42;;;;;;;10.30;5.88;;;;;;;3.36;76.90;100003.34;3588576;40;20193;-63
2021/12/09 00:49:09;;;;;;;12.88;6.03;;;;;;;3.34;76.79;99997.25;3586272;40;20052;-64
2021/12/09 00:51:35;;;;;;;14.30;6.10;;;;;;;3.36;77.29;99998.91;3586556;39;20056;-64
2021/12/09 00:54:01;;;;;;;11.18;5.40;;;;;;;3.38;77.13;99996.16;3588797;40;20050;-63
2021/12/09 00:56:27;;;;;;;13.40;5.95;;;;;;;3.09;77.39;99944.38;3589658;40;20056;-64
2021/12/09 00:58:55;;;;;;;13.38;5.72;;;;;;;3.36;77.06;100004.22;3592923;40;20201;-63
2021/12/09 01:01:22;;;;;;;16.27;6.00;;;;;;;3.39;77.38;100004.06;3590872;40;20087;-64
2021/12/09 01:03:48;;;;;;;11.05;5.07;;;;;;;3.38;77.13;100002.34;3590082;40;20126;-64
2021/12/09 01:06:14;;;;;;;13.35;5.78;;;;;;;3.40;76.50;100008.47;3589102;40;20051;-64
2021/12/09 01:08:42;;;;;;;11.02;5.55;;;;;;;3.46;76.89;100008.19;3591141;39;20074;-63
2021/12/09 01:11:11;;;;;;;12.75;6.10;;;;;;;3.15;76.69;99968.00;3588771;40;20058;-64
2021/12/09 01:13:38;;;;;;;13.48;5.82;;;;;;;3.38;76.56;100005.00;3588145;40;20068;-63
2021/12/09 01:16:04;;;;;;;11.30;5.35;;;;;;;3.35;77.21;100007.78;3593263;40;20091;-64
2021/12/09 01:18:30;;;;;;;14.05;6.07;;;;;;;3.35;76.94;100012.25;3582653;40;20047;-63
2021/12/09 01:20:57;;;;;;;14.18;6.03;;;;;;;3.31;77.11;100015.97;3588596;40;20087;-63
2021/12/09 01:23:22;;;;;;;14.73;6.10;;;;;;;3.28;76.93;100018.78;3589219;40;20054;-63
2021/12/09 01:25:50;;;;;;;14.65;6.43;;;;;;;3.25;76.91;100017.13;3591268;39;20056;-63
2021/12/09 01:28:25;;;;;;;9.77;5.90;;;;;;;3.22;77.29;100019.91;3589142;40;20290;-63
2021/12/09 01:30:58;;;;;;;11.05;5.95;;;;;;;3.20;76.63;100016.44;3590293;40;20145;-63
2021/12/09 01:33:24;;;;;;;11.93;6.32;;;;;;;3.20;76.71;100021.75;3586154;40;20093;-63
2021/12/09 01:35:49;;;;;;;12.85;6.00;;;;;;;3.19;77.17;100022.69;3579772;40;20052;-64
2021/12/09 01:38:17;;;;;;;14.40;6.22;;;;;;;3.16;77.36;100017.53;3587564;40;20052;-64
2021/12/09 01:40:44;;;;;;;12.60;6.38;;;;;;;3.11;77.53;100023.06;3586380;40;21669;-63
2021/12/09 01:43:11;;;;;;;12.23;6.47;;;;;;;3.13;77.16;100022.97;3587278;39;20052;-64
2021/12/09 01:45:37;;;;;;;9.90;5.80;;;;;;;3.13;77.16;100021.16;3591975;40;20078;-63
2021/12/09 01:48:03;;;;;;;12.38;6.10;;;;;;;3.11;77.20;100014.19;3585389;40;20048;-63
2021/12/09 01:50:29;;;;;;;13.00;6.00;;;;;;;3.12;77.43;100023.91;3589005;40;20284;-63
2021/12/09 01:52:54;;;;;;;11.73;6.15;;;;;;;3.10;76.90;100007.16;3588433;40;20102;-63
2021/12/09 01:55:21;;;;;;;13.40;5.68;;;;;;;3.07;77.25;100013.47;3588324;40;20283;-64
2021/12/09 01:57:51;;;;;;;14.38;6.72;;;;;;;3.06;77.25;100009.09;3591286;40;20044;-63
2021/12/09 02:00:24;;;;;;;10.90;6.20;;;;;;;3.06;77.74;100010.91;3577782;40;20064;-64
2021/12/09 02:02:51;;;;;;;10.57;6.05;;;;;;;3.03;77.55;100022.50;3589038;40;20326;-63
2021/12/09 02:05:18;;;;;;;14.93;6.47;;;;;;;2.99;76.82;100013.81;3589754;40;20056;-63
2021/12/09 02:07:44;;;;;;;14.43;6.00;;;;;;;2.88;77.23;99994.84;3591211;40;20067;-64
2021/12/09 02:10:16;;;;;;;17.23;6.47;;;;;;;2.91;76.81;100013.28;3590367;40;20409;-63
2021/12/09 02:12:42;;;;;;;15.45;6.25;;;;;;;2.87;77.81;100014.34;3577261;40;20720;-63
2021/12/09 02:15:10;;;;;;;11.70;5.88;;;;;;;2.86;77.57;100009.13;3589238;39;20358;-64
2021/12/09 02:17:36;;;;;;;9.63;6.05;;;;;;;2.84;78.15;100003.88;3585824;40;20052;-63
2021/12/09 02:20:07;;;;;;;12.30;5.57;;;;;;;2.82;77.41;100011.03;3592768;39;20113;-63
2021/12/09 02:22:33;;;;;;;10.93;5.30;;;;;;;2.83;78.70;100010.13;3591444;40;20267;-63
2021/12/09 02:24:59;;;;;;;12.75;5.43;;;;;;;2.82;78.14;100008.38;3590231;40;20094;-63
2021/12/09 02:27:25;;;;;;;12.35;5.75;;;;;;;2.78;78.69;99997.03;3586302;40;20064;-63
2021/12/09 02:29:57;;;;;;;16.95;6.25;;;;;;;2.83;78.16;99999.50;3586161;40;20084;-63
2021/12/09 02:32:23;;;;;;;14.15;5.70;;;;;;;2.82;78.46;100003.06;3577878;39;20059;-64
2021/12/09 02:34:49;;;;;;;11.43;6.50;;;;;;;2.85;78.04;99996.75;3587964;40;20079;-63
2021/12/09 02:37:15;;;;;;;13.13;5.47;;;;;;;2.83;78.16;99994.19;3589593;40;20055;-64
2021/12/09 02:39:43;;;;;;;13.52;6.22;;;;;;;2.83;77.90;100010.13;3586703;40;20059;-63
2021/12/09 02:42:11;;;;;;;12.45;6.10;;;;;;;2.81;78.11;100011.97;3588197;40;20063;-63
2021/12/09 02:44:36;;;;;;;10.38;5.68;;;;;;;2.85;78.66;100000.28;3585608;40;20118;-64
2021/12/09 02:47:03;;;;;;;11.63;6.03;;;;;;;2.86;77.82;100007.31;3579616;40;20048;-64
2021/12/09 02:49:32;;;;;;;12.55;5.63;;;;;;;2.74;77.44;99990.13;3578358;39;20355;-62
2021/12/09 02:52:03;;;;;;;10.23;5.82;;;;;;;2.85;77.77;100002.94;3588229;40;20055;-62
2021/12/09 02:54:30;;;;;;;7.78;4.88;;;;;;;2.84;77.51;100001.22;3592454;40;20056;-62
2021/12/09 02:57:03;;;;;;;12.40;5.25;;;;;;;2.86;77.29;100009.97;3589740;40;20131;-62
2021/12/09 02:59:29;;;;;;;14.88;6.03;;;;;;;2.50;77.57;99949.59;3591076;40;20124;-62
2021/12/09 03:02:01;;;;;;;11.95;5.30;;;;;;;2.83;77.53;100017.22;3585173;40;20087;-62
2021/12/09 03:04:41;;;;;;;15.57;5.63;;;;;;;2.82;78.20;100008.38;3588763;40;20060;-62
2021/12/09 03:07:27;;;;;;;15.13;6.15;;;;;;;2.80;77.15;100012.91;3589394;39;20096;-62
2021/12/09 03:09:59;;;;;;;11.68;5.38;;;;;;;2.79;78.00;100022.66;3587680;40;20079;-62
2021/12/09 03:12:31;;;;;;;10.80;5.85;;;;;;;2.73;77.35;100020.25;3587901;40;20048;-61
2021/12/09 03:14:59;;;;;;;11.68;5.32;;;;;;;2.75;77.84;100028.13;3587321;40;20070;-62
2021/12/09 03:17:25;;;;;;;13.00;5.57;;;;;;;2.76;78.12;100022.78;3615379;22;20067;-66
2021/12/09 03:19:53;;;;;;;11.93;4.78;;;;;;;2.77;77.69;100024.50;3575607;40;20484;-66
2021/12/09 03:22:20;;;;;;;14.80;5.88;;;;;;;2.74;77.86;100018.47;3578280;40;20345;-67
2021/12/09 03:24:47;;;;;;;14.40;5.78;;;;;;;2.66;77.62;100023.22;3577544;40;20064;-66
2021/12/09 03:27:12;;;;;;;12.38;5.20;;;;;;;2.77;78.02;100034.25;3576874;40;20110;-67
2021/12/09 03:29:40;;;;;;;14.60;5.22;;;;;;;2.78;77.57;100050.09;3577432;40;20069;-66
2021/12/09 03:32:12;;;;;;;11.57;5.38;;;;;;;2.70;77.55;100030.16;3578176;40;20072;-66
2021/12/09 03:34:40;;;;;;;7.95;4.40;;;;;;;2.76;78.20;100038.72;3577382;40;20136;-66
2021/12/09 03:37:18;;;;;;;12.85;5.20;;;;;;;2.72;77.96;100029.13;3581285;40;20170;-66
2021/12/09 03:39:45;;;;;;;11.38;4.50;;;;;;;2.76;78.06;100037.84;3582878;40;20825;-66
2021/12/09 03:42:19;;;;;;;12.00;5.32;;;;;;;2.73;77.93;100024.72;3582687;40;20125;-65
2021/12/09 03:44:48;;;;;;;12.35;5.20;;;;;;;2.77;77.54;100039.56;3577957;40;20044;-66
2021/12/09 03:47:20;;;;;;;14.10;5.22;;;;;;;2.79;78.08;100037.69;3576777;40;20052;-66
2021/12/09 03:49:46;;;;;;;10.25;4.35;;;;;;;2.79;78.07;100041.22;3578321;40;20056;-65
2021/12/09 03:52:13;;;;;;;10.27;4.90;;;;;;;2.76;77.42;100044.00;3579677;40;20134;-67
2021/12/09 03:54:41;;;;;;;10.23;4.32;;;;;;;2.81;78.07;100054.41;3579209;40;20422;-66
2021/12/09 03:57:09;;;;;;;13.38;4.50;;;;;;;2.79;77.04;100057.16;3579262;40;20048;-67
2021/12/09 03:59:36;;;;;;;10.43;4.40;;;;;;;2.75;78.06;100050.22;3578763;40;20052;-67
2021/12/09 04:02:04;;;;;;;9.60;4.50;;;;;;;2.76;77.85;100061.72;3578309;40;20052;-66
2021/12/09 04:04:29;;;;;;;13.23;4.53;;;;;;;2.78;77.28;100059.84;3579800;40;20054;-67
2021/12/09 04:06:55;;;;;;;8.30;4.40;;;;;;;2.75;77.56;100055.53;3579479;40;20055;-67
2021/12/09 04:09:22;;;;;;;8.23;3.97;;;;;;;2.64;77.59;100041.88;3580240;40;20092;-67
2021/12/09 04:11:50;;;;;;;11.57;4.72;;;;;;;2.70;77.34;100041.63;3579304;40;20658;-67
2021/12/09 04:14:17;;;;;;;10.93;4.30;;;;;;;2.70;77.43;100043.41;3576176;40;20064;-67
2021/12/09 04:16:43;;;;;;;10.73;4.25;;;;;;;2.69;77.79;100039.88;3577655;40;20417;-67
2021/12/09 04:19:13;;;;;;;11.43;4.55;;;;;;;2.66;77.51;100044.44;3576210;40;20385;-67
2021/12/09 04:21:41;;;;;;;12.70;4.22;;;;;;;2.67;77.56;100051.50;3580307;40;20072;-67
2021/12/09 04:24:11;;;;;;;13.32;4.30;;;;;;;2.63;77.94;100047.22;3575441;40;20052;-68
2021/12/09 04:26:42;;;;;;;10.50;4.13;;;;;;;2.61;77.39;100057.06;3579157;40;20418;-66
2021/12/09 04:29:11;;;;;;;12.38;4.40;;;;;;;2.65;77.43;100061.31;3575851;40;20089;-66
2021/12/09 04:31:38;;;;;;;9.73;3.95;;;;;;;2.62;77.35;100064.09;3579290;40;20066;-66
2021/12/09 04:34:05;;;;;;;9.00;3.70;;;;;;;2.53;78.17;100050.25;3577481;40;20437;-67
2021/12/09 04:36:31;;;;;;;8.52;3.85;;;;;;;2.61;77.27;100057.91;3566777;40;20052;-67
2021/12/09 04:38:56;;;;;;;12.25;4.80;;;;;;;2.43;77.72;100034.81;3577212;40;20057;-66
2021/12/09 04:41:23;;;;;;;10.40;3.90;;;;;;;2.59;77.90;100064.22;3577996;40;20049;-67
2021/12/09 04:43:49;;;;;;;9.48;4.25;;;;;;;2.55;77.12;100066.13;3575378;40;20376;-67
2021/12/09 04:46:16;;;;;;;7.50;3.90;;;;;;;2.53;77.78;100071.47;3579423;40;20101;-66
2021/12/09 04:48:42;;;;;;;14.30;4.43;;;;;;;2.38;78.13;100044.72;3575288;40;20153;-67
2021/12/09 04:51:08;;;;;;;12.85;3.83;;;;;;;2.47;78.07;100054.97;3579170;40;20126;-67
2021/12/09 04:53:34;;;;;;;12.95;4.43;;;;;;;2.54;77.73;100067.06;3576906;40;20059;-67
2021/12/09 04:56:01;;;;;;;13.30;4.20;;;;;;;2.53;77.38;100058.22;3577968;40;20163;-65
2021/12/09 04:58:28;;;;;;;8.15;4.28;;;;;;;2.47;78.06;100063.78;3576566;40;20056;-67
2021/12/09 05:01:00;;;;;;;13.23;4.97;;;;;;;2.28;77.69;100028.31;3576723;40;20768;-67
2021/12/09 05:03:26;;;;;;;10.60;4.18;;;;;;;2.50;77.93;100068.94;3577873;40;20049;-67
2021/12/09 05:05:55;;;;;;;10.23;3.88;;;;;;;2.44;78.83;100055.09;3576891;40;20045;-67
2021/12/09 05:08:26;;;;;;;8.73;4.07;;;;;;;2.54;78.10;100061.75;3567450;40;20056;-66
2021/12/09 05:11:11;;;;;;;9.15;3.63;;;;;;;2.53;77.75;100066.19;3574923;40;20126;-67
2021/12/09 05:13:39;;;;;;;9.13;3.85;;;;;;;2.51;78.18;100070.69;3578129;40;20057;-67
2021/12/09 05:16:09;;;;;;;12.60;4.70;;;;;;;2.30;77.90;100043.25;3581798;40;20058;-67
2021/12/09 05:18:39;;;;;;;12.57;4.57;;;;;;;2.51;78.09;100078.66;3573897;40;20071;-66
2021/12/09 05:21:07;;;;;;;9.18;3.92;;;;;;;2.29;77.41;100045.97;3574767;40;20332;-66
2021/12/09 05:23:35;;;;;;;8.68;4.15;;;;;;;2.51;78.24;100080.44;3576738;40;20044;-66
2021/12/09 05:26:02;;;;;;;14.25;4.63;;;;;;;2.52;78.50;100083.03;3577941;40;20406;-67
2021/12/09 05:28:33;;;;;;;8.52;3.90;;;;;;;2.54;78.29;100083.84;3574877;40;20041;-66
2021/12/09 05:32:07;;;;;;;9.15;3.83;;;;;;;2.43;78.32;100058.66;3575010;40;20102;-67
2021/12/09 05:33:48;;;;;;;12.55;4.03;;;;;;;2.58;77.69;100081.06;3577671;40;20058;-66
2021/12/09 05:36:15;;;;;;;11.35;4.38;;;;;;;2.01;78.24;99988.75;3579108;40;20044;-68
2021/12/09 05:38:40;;;;;;;10.63;4.10;;;;;;;2.45;78.43;100056.81;3576691;40;20380;-67
2021/12/09 05:41:07;;;;;;;7.70;4.07;;;;;;;2.59;77.95;100085.44;3581347;40;20044;-67
2021/12/09 05:43:34;;;;;;;9.65;3.97;;;;;;;2.58;77.33;100089.03;3577198;40;20075;-67
2021/12/09 05:45:59;;;;;;;11.90;4.13;;;;;;;2.59;77.69;100093.41;3579517;40;20060;-66
2021/12/09 05:48:26;;;;;;;14.57;4.47;;;;;;;2.53;78.05;100082.09;3578111;40;20060;-67
2021/12/09 05:50:53;;;;;;;9.15;4.13;;;;;;;2.59;77.07;100096.03;3578554;40;20063;-66
2021/12/09 05:53:18;;;;;;;10.25;4.32;;;;;;;2.61;77.60;100100.38;3578370;40;20044;-66
2021/12/09 05:55:45;;;;;;;9.15;3.92;;;;;;;2.28;77.42;100046.88;3576005;40;20300;-67
2021/12/09 05:58:17;;;;;;;12.48;4.68;;;;;;;2.59;77.24;100101.34;3580213;40;20056;-67
2021/12/09 06:00:44;;;;;;;10.90;4.90;;;;;;;2.56;77.44;100097.88;3568810;40;20061;-68
2021/12/09 06:03:10;;;;;;;6.95;4.47;;;;;;;2.55;77.61;100096.16;3578266;40;20123;-67
2021/12/09 06:05:36;;;;;;;11.52;4.43;;;;;;;2.48;78.12;100073.47;3582175;40;20415;-68
2021/12/09 06:08:04;;;;;;;11.60;4.53;;;;;;;2.47;77.72;100082.34;3580243;40;20110;-67
2021/12/09 06:10:33;;;;;;;9.30;4.70;;;;;;;2.56;77.98;100092.56;3578744;40;20053;-67
2021/12/09 06:13:00;;;;;;;11.35;4.35;;;;;;;2.55;78.12;100095.31;3574688;40;20049;-67
2021/12/09 06:15:26;;;;;;;11.90;4.68;;;;;;;2.48;77.10;100089.41;3580819;40;20219;-68
2021/12/09 06:17:52;;;;;;;13.13;4.43;;;;;;;2.49;77.37;100101.72;3575189;40;20063;-68
2021/12/09 06:20:17;;;;;;;14.25;4.75;;;;;;;2.23;77.60;100052.38;3569665;40;20310;-67
2021/12/09 06:22:43;;;;;;;11.52;4.10;;;;;;;2.44;77.31;100090.44;3576129;40;20045;-68
2021/12/09 06:25:16;;;;;;;10.65;4.50;;;;;;;2.39;78.38;100079.16;3573090;40;20051;-67
2021/12/09 06:27:42;;;;;;;11.13;5.05;;;;;;;2.47;78.29;100086.78;3576669;40;20093;-69
2021/12/09 06:30:08;;;;;;;7.82;4.15;;;;;;;2.48;78.29;100089.41;3575620;40;20048;-68
2021/12/09 06:32:34;;;;;;;13.60;5.22;;;;;;;2.35;78.06;100066.06;3576680;40;20068;-67
2021/12/09 06:34:59;;;;;;;6.40;4.32;;;;;;;2.48;78.53;100089.41;3576840;40;20043;-68
2021/12/09 06:37:25;;;;;;;11.73;4.72;;;;;;;2.45;78.24;100097.47;3579664;40;20410;-67
2021/12/09 06:39:50;;;;;;;10.40;4.82;;;;;;;2.45;78.09;100086.88;3574816;40;20057;-68
2021/12/09 06:42:17;;;;;;;12.60;4.80;;;;;;;2.46;78.33;100101.84;3576046;40;20063;-67
2021/12/09 06:44:44;;;;;;;8.82;4.63;;;;;;;2.44;78.28;100108.13;3581072;40;20053;-68
2021/12/09 06:47:10;;;;;;;10.68;4.85;;;;;;;2.39;79.08;100110.97;3577615;40;20052;-67
2021/12/09 06:49:36;;;;;;;14.50;5.13;;;;;;;2.44;78.87;100116.09;3577615;40;20068;-68
2021/12/09 06:52:02;;;;;;;10.27;4.53;;;;;;;2.36;78.06;100103.16;3573993;40;20100;-68
2021/12/09 06:54:28;;;;;;;12.05;5.45;;;;;;;2.26;78.06;100085.88;3578277;40;20062;-67
2021/12/09 06:56:54;;;;;;;10.20;4.53;;;;;;;2.40;78.60;100123.31;3578947;40;20108;-68
2021/12/09 06:59:19;;;;;;;9.30;4.65;;;;;;;2.36;77.95;100102.28;3580052;40;20060;-67
2021/12/09 07:01:45;;;;;;;13.05;4.95;;;;;;;2.38;78.04;100109.25;3576787;40;20052;-67
2021/12/09 07:04:10;;;;;;;10.68;4.72;;;;;;;2.45;78.04;100113.38;3579826;40;20052;-67
2021/12/09 07:06:38;;;;;;;11.80;4.90;;;;;;;2.42;78.53;100121.47;3577786;40;20045;-68
2021/12/09 07:09:05;;;;;;;15.23;5.05;;;;;;;2.44;77.90;100127.59;3581907;40;20052;-68
2021/12/09 07:11:32;;;;;;;12.77;4.97;;;;;;;2.42;78.05;100124.13;3577326;40;20308;-68
2021/12/09 07:13:58;;;;;;;12.15;5.20;;;;;;;2.35;78.10;100117.34;3580483;40;20398;-67
2021/12/09 07:16:24;;;;;;;13.80;5.05;;;;;;;2.41;78.19;100124.16;3576578;40;20069;-67
2021/12/09 07:18:51;;;;;;;9.95;4.88;;;;;;;2.43;79.14;100120.53;3581035;40;20048;-66
2021/12/09 07:21:16;;;;;;;12.32;4.75;;;;;;;2.45;78.46;100121.34;3567093;40;20048;-66
2021/12/09 07:23:42;;;;;;;10.80;4.68;;;;;;;2.47;78.46;100124.78;3577835;40;20439;-68
2021/12/09 07:26:08;;;;;;;11.48;4.78;;;;;;;2.49;77.77;100130.03;3578967;40;20322;-67
2021/12/09 07:28:34;;;;;;;12.50;4.38;;;;;;;2.48;78.25;100130.97;3577359;40;20085;-67
2021/12/09 07:31:00;;;;;;;12.43;4.95;;;;;;;2.48;77.77;100125.66;3574549;40;20045;-67
2021/12/09 07:33:26;;;;;;;12.75;4.90;;;;;;;2.44;78.48;100124.94;3576153;40;20052;-66
2021/12/09 07:35:51;;;;;;;10.68;4.93;;;;;;;2.48;78.00;100117.72;3575965;40;20410;-67
2021/12/09 07:38:17;;;;;;;11.25;5.00;;;;;;;2.54;78.62;100126.28;3576777;40;20052;-67
2021/12/09 07:40:43;;;;;;;15.15;4.97;;;;;;;2.54;78.13;100128.94;3577215;40;20061;-66
2021/12/09 07:43:09;;;;;;;11.60;5.43;;;;;;;2.52;78.15;100130.78;3577253;40;20057;-66
2021/12/09 07:45:35;;;;;;;14.00;4.50;;;;;;;2.55;78.45;100138.63;3577639;40;20068;-66
2021/12/09 07:48:00;;;;;;;12.48;4.72;;;;;;;2.54;77.69;100136.03;3574346;40;20049;-67
2021/12/09 07:50:31;;;;;;;13.90;4.65;;;;;;;2.45;78.48;100109.88;3577497;40;20473;-66
2021/12/09 07:52:57;;;;;;;12.00;4.32;;;;;;;2.32;77.99;100105.06;3578992;40;20064;-66
2021/12/09 07:55:25;;;;;;;10.27;5.35;;;;;;;2.59;78.27;100133.19;3580923;40;20059;-66
2021/12/09 07:57:52;;;;;;;10.65;4.78;;;;;;;2.59;77.91;100134.03;3577703;40;20061;-66
2021/12/09 08:00:26;;;;;;;10.68;5.03;;;;;;;2.62;78.96;100125.09;3575981;40;20059;-66
2021/12/09 08:02:55;;;;;;;11.18;4.72;;;;;;;2.65;78.17;100131.16;3578887;40;20073;-67
2021/12/09 08:05:23;;;;;;;15.05;5.38;;;;;;;2.67;78.15;100139.91;3570912;40;20312;-66
2021/12/09 08:07:49;;;;;;;11.20;4.60;;;;;;;2.71;78.40;100138.00;3576015;40;20061;-66
2021/12/09 08:10:18;;;;;;;9.77;5.07;;;;;;;2.76;77.90;100146.66;3576820;40;20543;-66
2021/12/09 08:12:44;;;;;;;12.95;5.43;;;;;;;2.79;77.97;100141.19;3576942;40;20512;-65
2021/12/09 08:15:12;;;;;;;12.32;5.07;;;;;;;2.92;78.31;100154.84;3576029;40;20052;-64
2021/12/09 08:20:17;;;;;;;10.75;4.90;;;;;;;3.01;77.27;100163.31;3577968;40;20040;-66
2021/12/09 08:22:46;;;;;;;12.07;4.53;;;;;;;3.09;77.07;100164.75;3576197;40;20048;-67
2021/12/09 08:25:14;;;;;;;10.85;4.70;;;;;;;3.08;77.81;100141.81;3580797;40;20055;-67
2021/12/09 08:27:43;;;;;;;11.80;4.88;;;;;;;3.21;77.36;100158.94;3576843;40;20063;-67
2021/12/09 08:30:14;;;;;;;11.85;4.53;;;;;;;3.23;76.63;100151.75;3578292;40;20062;-66
2021/12/09 08:32:40;;;;;;;12.45;4.75;;;;;;;3.28;76.50;100155.09;3577834;40;20057;-66
2021/12/09 08:35:07;;;;;;;8.68;4.90;;;;;;;3.36;77.01;100150.31;3581947;40;20084;-66
2021/12/09 08:37:33;;;;;;;12.48;4.57;;;;;;;3.20;76.57;100112.03;3577554;40;20132;-65
2021/12/09 08:39:58;;;;;;;13.52;4.40;;;;;;;3.52;76.43;100152.28;3579472;40;20056;-65
2021/12/09 08:42:24;;;;;;;10.25;4.65;;;;;;;3.27;76.20;100116.19;3581283;40;20096;-65
2021/12/09 08:44:52;;;;;;;11.63;4.45;;;;;;;3.48;75.98;100130.31;3577750;40;20075;-65
2021/12/09 08:47:18;;;;;;;9.57;4.47;;;;;;;3.59;76.03;100159.09;3582121;40;20045;-66
2021/12/09 08:49:45;;;;;;;11.52;4.60;;;;;;;3.62;75.96;100165.13;3579347;40;20390;-65
2021/12/09 08:52:12;;;;;;;10.23;4.63;;;;;;;3.65;75.72;100158.81;3577742;40;20092;-65
2021/12/09 08:54:38;;;;;;;15.70;5.50;;;;;;;3.43;76.03;100127.88;3575614;40;20397;-66
2021/12/09 08:57:04;;;;;;;14.32;4.78;;;;;;;3.72;75.55;100170.91;3577922;40;20060;-68
2021/12/09 08:59:31;;;;;;;14.30;4.78;;;;;;;3.62;75.54;100130.59;3575147;40;20085;-68
2021/12/09 09:01:56;;;;;;;12.38;4.75;;;;;;;3.60;76.01;100135.09;3578793;40;20089;-66
2021/12/09 09:04:22;;;;;;;11.65;4.50;;;;;;;3.72;75.82;100152.31;3567370;40;20048;-67
2021/12/09 09:06:56;;;;;;;11.20;4.80;;;;;;;3.88;75.18;100156.00;3565628;40;20130;-66
2021/12/09 09:09:24;;;;;;;14.70;4.72;;;;;;;3.90;75.65;100155.91;3577489;40;20399;-67
2021/12/09 09:11:51;;;;;;;12.32;4.90;;;;;;;3.98;75.32;100166.22;3575678;40;20122;-66
2021/12/09 09:14:17;;;;;;;12.75;6.63;;;;;;;3.97;75.34;100164.50;3578293;40;20398;-67
2021/12/09 09:16:43;;;;;;;15.30;6.22;;;;;;;4.03;75.64;100158.88;3613152;22;20123;-65
2021/12/09 09:19:10;;;;;;;16.35;5.57;;;;;;;4.08;75.47;100157.72;3570522;40;20051;-65
2021/12/09 09:21:36;;;;;;;10.43;4.57;;;;;;;4.10;75.04;100165.66;3580169;40;20052;-65
2021/12/09 09:24:03;;;;;;;11.15;5.50;;;;;;;4.15;74.85;100158.31;3582126;40;20040;-66
2021/12/09 09:26:30;;;;;;;13.70;5.07;;;;;;;4.13;75.30;100155.75;3579160;40;20052;-65
2021/12/09 09:28:57;;;;;;;9.93;4.43;;;;;;;3.95;74.24;100114.88;3580990;40;20093;-65
2021/12/09 09:31:28;;;;;;;15.13;4.88;;;;;;;4.29;74.32;100163.00;3581319;40;20445;-65
2021/12/09 09:33:54;;;;;;;10.90;5.07;;;;;;;4.27;74.81;100156.88;3581387;40;20085;-65
2021/12/09 09:36:20;;;;;;;12.38;5.28;;;;;;;4.32;75.00;100177.03;3581838;40;20060;-65
2021/12/09 09:38:46;;;;;;;13.15;5.50;;;;;;;4.39;74.99;100173.16;3578650;40;20296;-65
2021/12/09 09:41:14;;;;;;;13.30;4.47;;;;;;;4.43;75.28;100168.53;3578151;40;20318;-65
2021/12/09 09:46:19;;;;;;;11.30;5.18;;;;;;;4.46;74.24;100173.72;3577043;40;20055;-65
2021/12/09 09:48:48;;;;;;;12.45;5.10;;;;;;;4.52;74.72;100172.56;3577673;40;20048;-65
2021/12/09 09:51:16;;;;;;;8.88;4.88;;;;;;;4.49;74.89;100178.03;3579231;40;20053;-66
2021/12/09 09:53:43;;;;;;;13.75;5.90;;;;;;;4.51;75.08;100186.81;3579351;40;20068;-65
2021/12/09 09:56:18;;;;;;;11.70;5.70;;;;;;;4.53;74.95;100190.25;3579900;40;20071;-65
2021/12/09 09:58:53;;;;;;;12.70;5.60;;;;;;;4.53;75.10;100185.78;3582454;40;20055;-65
2021/12/09 10:01:22;;;;;;;11.27;5.88;;;;;;;4.55;75.26;100188.41;3579535;40;20052;-65
2021/12/09 10:03:52;;;;;;;11.93;5.53;;;;;;;4.62;74.98;100190.69;3579658;40;20108;-65
2021/12/09 10:06:20;;;;;;;10.55;5.65;;;;;;;4.63;74.68;100187.09;3577544;40;20056;-65
2021/12/09 10:08:46;;;;;;;12.25;5.07;;;;;;;4.68;74.94;100184.22;3578106;40;20072;-65
2021/12/09 10:11:12;;;;;;;11.77;5.05;;;;;;;4.72;74.84;100185.78;3577853;40;20062;-66
2021/12/09 10:13:42;;;;;;;14.98;6.32;;;;;;;4.76;74.65;100186.53;3580179;40;20067;-65
2021/12/09 10:16:28;;;;;;;9.27;5.25;;;;;;;4.78;74.91;100185.47;3576993;40;20088;-65
2021/12/09 10:18:54;;;;;;;12.18;5.47;;;;;;;4.82;74.42;100172.88;3579155;40;20115;-65
2021/12/09 10:21:28;;;;;;;13.10;6.07;;;;;;;4.83;74.85;100161.31;3576534;40;20540;-65
2021/12/09 10:24:05;;;;;;;11.55;5.72;;;;;;;4.88;74.42;100159.28;3579763;40;20071;-65
2021/12/09 10:26:36;;;;;;;12.07;5.20;;;;;;;4.98;74.18;100165.91;3576399;40;20096;-65
2021/12/09 10:29:19;;;;;;;12.45;5.70;;;;;;;4.98;74.50;100157.00;3578975;40;20368;-65
2021/12/09 10:31:59;;;;;;;12.27;5.43;;;;;;;5.02;74.30;100151.47;3580341;40;20437;-65
2021/12/09 10:34:41;;;;;;;9.90;5.07;;;;;;;5.04;74.62;100159.38;3580714;40;20053;-64
2021/12/09 10:37:23;;;;;;;11.90;5.50;;;;;;;5.05;74.34;100159.31;3578681;40;20053;-65
2021/12/09 10:40:04;;;;;;;8.75;5.50;;;;;;;5.09;74.23;100152.03;3579993;40;20095;-67
2021/12/09 10:42:35;;;;;;;17.17;5.60;;;;;;;5.08;73.66;100152.97;3580651;40;20044;-64
2021/12/09 10:45:07;;;;;;;11.10;5.80;;;;;;;5.07;74.25;100160.13;3577355;40;20049;-64
2021/12/09 10:47:58;;;;;;;11.93;6.25;;;;;;;5.01;74.33;100140.88;3580664;40;20125;-63
2021/12/09 10:50:32;;;;;;;11.77;5.63;;;;;;;5.10;74.30;100167.91;3575710;40;20053;-64
2021/12/09 10:53:32;;;;;;;9.20;5.43;;;;;;;5.12;74.22;100173.19;3578201;40;20200;-63
2021/12/09 10:56:11;;;;;;;10.38;4.80;;;;;;;5.13;74.42;100164.25;3575435;40;20106;-66
2021/12/09 10:58:46;;;;;;;10.55;5.82;;;;;;;5.15;74.19;100158.88;3577985;40;20053;-66
2021/12/09 11:01:19;;;;;;;9.32;5.25;;;;;;;5.18;73.88;100164.03;3576126;40;20131;-64
2021/12/09 11:03:53;;;;;;;10.75;5.78;;;;;;;5.19;74.64;100169.28;3577545;40;21403;-66
2021/12/09 11:06:33;;;;;;;14.57;5.32;;;;;;;5.20;74.32;100159.47;3575676;40;20064;-64
2021/12/09 11:09:03;;;;;;;10.32;5.70;;;;;;;5.26;74.71;100160.03;3578246;40;20052;-64
2021/12/09 11:11:37;;;;;;;11.05;6.05;;;;;;;5.28;74.53;100158.16;3576099;40;20052;-64
2021/12/09 11:14:13;;;;;;;7.00;5.60;;;;;;;5.34;74.32;100159.66;3576150;40;20451;-64
2021/12/09 11:16:44;;;;;;;10.32;5.63;;;;;;;5.35;73.64;100156.88;3578075;40;20052;-66
2021/12/09 11:19:46;;;;;;;10.75;5.85;;;;;;;5.38;73.88;100147.88;3577484;40;20185;-65
2021/12/09 11:22:19;;;;;;;9.75;5.38;;;;;;;5.40;73.62;100150.50;3577261;40;20298;-64
2021/12/09 11:24:48;;;;;;;12.02;5.90;;;;;;;5.41;74.01;100141.53;3577483;40;20767;-64
2021/12/09 11:27:22;;;;;;;11.68;5.95;;;;;;;5.43;74.04;100142.34;3577348;40;20399;-65
2021/12/09 11:29:53;;;;;;;8.18;5.43;;;;;;;5.02;74.19;100070.72;3578104;40;20057;-64
2021/12/09 11:35:16;;;;;;;10.23;5.57;;;;;;;5.45;73.85;100138.63;3577984;40;20049;-64
2021/12/09 11:37:57;;;;;;;9.20;5.63;;;;;;;5.48;74.58;100141.13;3579801;40;20049;-65
2021/12/09 11:43:10;;;;;;;11.18;5.95;;;;;;;5.59;74.26;100140.59;3576215;40;20053;-65
2021/12/09 11:45:44;;;;;;;8.88;4.85;;;;;;;5.62;73.64;100143.09;3576367;40;20052;-64